TimeCET,TemperatureF,Dew PointF,Humidity,Sea Level PressureIn,VisibilityMPH,Wind Direction,Wind SpeedMPH,Gust SpeedMPH,PrecipitationIn,Events,Conditions,WindDirDegrees,DateUTC
12:00 AM,37.4,33.8,87,30.06,-9999.0,SW,19.6,-,N/A,,Clear,220,2012-11-06 23:00:00
12:30 AM,37.4,33.8,87,30.04,-9999.0,SW,16.1,-,N/A,,Clear,220,2012-11-06 23:30:00
1:00 AM,38,34,81,30.09,12,WSW,17.9,,,,Mostly Cloudy,240,2012-11-07 00:00:00
1:00 AM,39.2,33.8,81,30.04,-9999.0,SW,18.4,-,N/A,,Clear,230,2012-11-07 00:00:00
1:30 AM,39.2,33.8,81,30.04,6.2,SW,19.6,-,N/A,,Partly Cloudy,230,2012-11-07 00:30:00
2:00 AM,39.2,33.8,81,30.04,6.2,SW,20.7,-,N/A,,Partly Cloudy,230,2012-11-07 01:00:00
2:30 AM,39.2,33.8,81,30.04,6.2,SW,20.7,-,N/A,,Partly Cloudy,230,2012-11-07 01:30:00
3:00 AM,39.2,33.8,81,30.01,6.2,SW,21.9,-,N/A,,Partly Cloudy,230,2012-11-07 02:00:00
3:30 AM,39.2,33.8,81,30.01,6.2,SW,26.5,-,N/A,,Partly Cloudy,230,2012-11-07 02:30:00
4:00 AM,39.2,33.8,81,29.98,6.2,SW,27.6,39.1,N/A,,Partly Cloudy,230,2012-11-07 03:00:00
4:30 AM,39.2,33.8,81,30.01,6.2,WSW,26.5,-,N/A,,Partly Cloudy,240,2012-11-07 03:30:00
5:00 AM,39.2,33.8,81,29.98,6.2,WSW,26.5,38.0,N/A,,Mostly Cloudy,240,2012-11-07 04:00:00
5:30 AM,39.2,33.8,81,29.98,6.2,WSW,27.6,-,N/A,,Mostly Cloudy,240,2012-11-07 04:30:00
6:00 AM,39.2,33.8,81,30.01,6.2,WSW,28.8,-,N/A,Rain,Light Rain Showers,240,2012-11-07 05:00:00
6:05 AM,39.2,33.8,81,30.01,6.2,WSW,28.8,-,N/A,,Mostly Cloudy,240,2012-11-07 05:05:00
6:13 AM,39.2,33.8,81,30.01,6.2,WSW,27.6,41.4,N/A,Rain,Light Rain,240,2012-11-07 05:13:00
6:30 AM,39.2,33.8,81,30.01,6.2,WSW,28.8,-,N/A,,Mostly Cloudy,240,2012-11-07 05:30:00
7:00 AM,40,35,75,30.06,19,WSW,24.6,,,Rain,Light Rain,250,2012-11-07 06:00:00
7:00 AM,39.2,35.6,87,30.01,6.2,WSW,27.6,-,N/A,,Mostly Cloudy,240,2012-11-07 06:00:00
7:30 AM,39.2,35.6,87,30.01,6.2,WSW,28.8,-,N/A,,Mostly Cloudy,240,2012-11-07 06:30:00
7:49 AM,41.0,35.6,81,30.01,6.2,WSW,28.8,40.3,N/A,,Mostly Cloudy,240,2012-11-07 06:49:00
8:00 AM,41.0,35.6,81,30.01,6.2,WSW,28.8,40.3,N/A,,Scattered Clouds,240,2012-11-07 07:00:00
8:30 AM,41.0,35.6,81,30.04,6.2,WSW,28.8,40.3,N/A,,Scattered Clouds,240,2012-11-07 07:30:00
9:00 AM,41.0,35.6,81,30.04,6.2,WSW,25.3,36.8,N/A,,Partly Cloudy,240,2012-11-07 08:00:00
9:30 AM,41.0,35.6,81,30.06,6.2,WSW,25.3,36.8,N/A,,Mostly Cloudy,240,2012-11-07 08:30:00
10:00 AM,42.8,35.6,76,30.06,6.2,WSW,25.3,36.8,N/A,,Mostly Cloudy,240,2012-11-07 09:00:00
10:30 AM,42.8,35.6,76,30.09,6.2,WSW,25.3,36.8,N/A,,Mostly Cloudy,240,2012-11-07 09:30:00
11:00 AM,42.8,37.4,81,30.09,6.2,WSW,21.9,33.4,N/A,,Mostly Cloudy,240,2012-11-07 10:00:00
11:30 AM,42.8,37.4,81,30.09,6.2,WSW,23.0,34.5,N/A,,Mostly Cloudy,240,2012-11-07 10:30:00
12:00 PM,44.6,37.4,76,30.09,6.2,WSW,23.0,34.5,N/A,,Mostly Cloudy,240,2012-11-07 11:00:00
12:30 PM,44.6,39.2,81,30.09,6.2,WSW,23.0,34.5,N/A,,Mostly Cloudy,240,2012-11-07 11:30:00
1:00 PM,46,39,67,30.15,44,WSW,22.4,,,Rain,Light Rain Showers,250,2012-11-07 12:00:00
1:00 PM,46.4,39.2,76,30.09,6.2,WSW,23.0,34.5,N/A,,Mostly Cloudy,240,2012-11-07 12:00:00
1:30 PM,44.6,39.2,81,30.12,6.2,WSW,25.3,-,N/A,Rain,Light Rain Showers,240,2012-11-07 12:30:00
2:00 PM,46.4,39.2,76,30.12,6.2,WSW,25.3,-,N/A,,Mostly Cloudy,240,2012-11-07 13:00:00
2:30 PM,46.4,39.2,76,30.12,6.2,WSW,23.0,-,N/A,,Mostly Cloudy,240,2012-11-07 13:30:00
3:00 PM,46.4,39.2,76,30.15,6.2,WSW,23.0,-,N/A,,Mostly Cloudy,240,2012-11-07 14:00:00
3:30 PM,44.6,39.2,81,30.15,6.2,WSW,26.5,-,N/A,,Mostly Cloudy,240,2012-11-07 14:30:00
4:00 PM,44.6,41.0,87,30.15,6.2,WSW,21.9,-,N/A,,Mostly Cloudy,240,2012-11-07 15:00:00
4:30 PM,44.6,41.0,87,30.18,6.2,WSW,20.7,-,N/A,,Overcast,240,2012-11-07 15:30:00
5:00 PM,44.6,41.0,87,30.18,6.2,WSW,21.9,-,N/A,,Overcast,240,2012-11-07 16:00:00
5:30 PM,44.6,39.2,81,30.21,6.2,SW,19.6,-,N/A,,Mostly Cloudy,230,2012-11-07 16:30:00
6:00 PM,44.6,41.0,87,30.21,6.2,SW,20.7,-,N/A,,Overcast,230,2012-11-07 17:00:00
6:30 PM,44.6,41.0,87,30.21,6.2,WSW,19.6,-,N/A,,Scattered Clouds,240,2012-11-07 17:30:00
7:00 PM,45,40,78,30.25,31,WSW,17.9,,,,Partly Cloudy,240,2012-11-07 18:00:00
7:00 PM,44.6,41.0,87,30.21,-9999.0,SW,20.7,-,N/A,,Clear,230,2012-11-07 18:00:00
7:30 PM,44.6,41.0,87,30.21,6.2,SW,20.7,-,N/A,,Scattered Clouds,230,2012-11-07 18:30:00
8:00 PM,44.6,41.0,87,30.24,6.2,SW,21.9,-,N/A,,Mostly Cloudy,230,2012-11-07 19:00:00
8:30 PM,44.6,41.0,87,30.21,6.2,SW,25.3,-,N/A,,Partly Cloudy,230,2012-11-07 19:30:00
9:00 PM,44.6,41.0,87,30.24,6.2,SW,26.5,-,N/A,,Mostly Cloudy,230,2012-11-07 20:00:00
9:08 PM,44.6,41.0,87,30.24,6.2,SW,25.3,-,N/A,Rain,Light Rain,230,2012-11-07 20:08:00
9:30 PM,42.8,41.0,93,30.24,4.3,WSW,20.7,-,N/A,Rain,Light Rain,240,2012-11-07 20:30:00
10:00 PM,42.8,41.0,93,30.24,4.3,SW,11.5,-,N/A,Rain,Light Rain,230,2012-11-07 21:00:00
10:30 PM,42.8,41.0,93,30.24,5.0,SW,12.7,-,N/A,,Light Drizzle,230,2012-11-07 21:30:00
11:00 PM,42.8,41.0,93,30.24,5.0,SW,10.4,-,N/A,,Light Drizzle,230,2012-11-07 22:00:00
11:30 PM,42.8,41.0,93,30.21,6.2,SW,8.1,-,N/A,,Light Drizzle,220,2012-11-07 22:30:00